Time,TemperatureF,DewpointF,PressureIn,WindDirection,WindDirectionDegrees,WindSpeedMPH,WindSpeedGustMPH,Humidity,HourlyPrecipIn,Conditions,Clouds,dailyrainin,SoftwareType,DateUTC
2013-06-19 00:01:00,74.0,61.0,30.02,ESE,106,0.0,0.0,65,0.00,,,0.00,,2013-06-19 05:01:00,
2013-06-19 00:11:00,74.0,61.0,30.02,ESE,106,0.0,0.0,65,0.00,,,0.00,,2013-06-19 05:11:00,
2013-06-19 00:22:00,74.0,61.0,30.02,ESE,106,0.0,0.0,65,0.00,,,0.00,,2013-06-19 05:22:00,
2013-06-19 00:32:00,74.0,61.0,30.02,ESE,106,0.0,0.0,65,0.00,,,0.00,,2013-06-19 05:32:00,
2013-06-19 00:42:00,74.0,61.0,30.02,ESE,106,0.0,0.0,65,0.00,,,0.00,,2013-06-19 05:42:00,
2013-06-19 00:52:00,72.0,61.0,30.02,ESE,106,0.0,0.0,69,0.00,,,0.00,,2013-06-19 05:52:00,
2013-06-19 01:01:00,72.0,61.0,30.02,ESE,106,0.0,0.0,69,0.00,,,0.00,,2013-06-19 06:01:00,
2013-06-19 01:11:00,72.0,61.0,30.02,ESE,106,0.0,0.0,69,0.00,,,0.00,,2013-06-19 06:11:00,
2013-06-19 01:22:00,71.0,62.0,30.02,ESE,106,0.0,0.0,72,0.00,,,0.00,,2013-06-19 06:22:00,
2013-06-19 01:33:00,71.0,62.0,30.02,ESE,106,0.0,0.0,72,0.00,,,0.00,,2013-06-19 06:33:00,
2013-06-19 01:43:00,71.0,62.0,30.02,ESE,106,0.0,0.0,72,0.00,,,0.00,,2013-06-19 06:43:00,
2013-06-19 01:52:00,70.0,62.0,30.00,ESE,107,0.0,0.0,75,0.00,,,0.00,,2013-06-19 06:52:00,
2013-06-19 02:01:00,70.0,62.0,30.00,ESE,107,0.0,0.0,75,0.00,,,0.00,,2013-06-19 07:01:00,
2013-06-19 02:11:00,70.0,62.0,30.00,ESE,107,0.0,0.0,75,0.00,,,0.00,,2013-06-19 07:11:00,
2013-06-19 02:22:00,69.0,62.0,30.00,ESE,107,0.0,0.0,78,0.00,,,0.00,,2013-06-19 07:22:00,
2013-06-19 02:33:00,69.0,62.0,30.00,ESE,107,0.0,0.0,78,0.00,,,0.00,,2013-06-19 07:33:00,
2013-06-19 02:43:00,69.0,62.0,30.00,ESE,107,0.0,0.0,78,0.00,,,0.00,,2013-06-19 07:43:00,
2013-06-19 02:53:00,68.0,61.0,29.98,ESE,107,0.0,0.0,79,0.00,,,0.00,,2013-06-19 07:53:00,
2013-06-19 03:02:00,68.0,61.0,29.98,ESE,107,0.0,0.0,79,0.00,,,0.00,,2013-06-19 08:02:00,
2013-06-19 03:11:00,68.0,61.0,29.98,ESE,107,0.0,0.0,79,0.00,,,0.00,,2013-06-19 08:11:00,
2013-06-19 03:22:00,67.0,61.0,29.98,ESE,104,0.0,0.0,81,0.00,,,0.00,,2013-06-19 08:22:00,
2013-06-19 03:33:00,67.0,61.0,29.98,ESE,104,0.0,0.0,81,0.00,,,0.00,,2013-06-19 08:33:00,
2013-06-19 03:43:00,67.0,61.0,29.98,ESE,104,0.0,0.0,81,0.00,,,0.00,,2013-06-19 08:43:00,
2013-06-19 03:54:00,67.0,60.0,29.97,ESE,104,0.0,0.0,78,0.00,,,0.00,,2013-06-19 08:54:00,
2013-06-19 04:02:00,67.0,60.0,29.97,ESE,104,0.0,0.0,78,0.00,,,0.00,,2013-06-19 09:02:00,
2013-06-19 04:11:00,67.0,60.0,29.97,ESE,104,0.0,0.0,78,0.00,,,0.00,,2013-06-19 09:11:00,
2013-06-19 04:22:00,68.0,61.0,29.96,WSW,253,0.0,0.0,77,0.00,,,0.00,,2013-06-19 09:22:00,
2013-06-19 04:34:00,68.0,61.0,29.96,WSW,253,0.0,0.0,77,0.00,,,0.00,,2013-06-19 09:34:00,
2013-06-19 04:44:00,68.0,61.0,29.96,WSW,253,0.0,0.0,77,0.00,,,0.00,,2013-06-19 09:44:00,
2013-06-19 04:53:00,67.0,60.0,29.96,WSW,247,0.0,0.0,78,0.00,,,0.00,,2013-06-19 09:53:00,
2013-06-19 05:01:00,67.0,60.0,29.96,WSW,247,0.0,0.0,78,0.00,,,0.00,,2013-06-19 10:01:00,
2013-06-19 05:11:00,67.0,60.0,29.96,WSW,247,0.0,0.0,78,0.00,,,0.00,,2013-06-19 10:11:00,
2013-06-19 05:22:00,67.0,61.0,29.98,WSW,246,0.0,0.0,80,0.00,,,0.00,,2013-06-19 10:22:00,
2013-06-19 05:33:00,67.0,61.0,29.98,WSW,246,0.0,0.0,80,0.00,,,0.00,,2013-06-19 10:33:00,
2013-06-19 05:43:00,67.0,61.0,29.98,WSW,246,0.0,0.0,80,0.00,,,0.00,,2013-06-19 10:43:00,
2013-06-19 05:53:00,66.0,60.0,29.98,WSW,247,0.0,0.0,81,0.00,,,0.00,,2013-06-19 10:53:00,
2013-06-19 06:02:00,66.0,60.0,29.98,WSW,247,0.0,0.0,81,0.00,,,0.00,,2013-06-19 11:02:00,
2013-06-19 06:11:00,66.0,60.0,29.98,WSW,247,0.0,0.0,81,0.00,,,0.00,,2013-06-19 11:11:00,
2013-06-19 06:22:00,66.0,60.0,29.98,WSW,248,0.0,0.0,82,0.00,,,0.00,,2013-06-19 11:22:00,
2013-06-19 06:33:00,66.0,60.0,29.98,WSW,248,0.0,0.0,82,0.00,,,0.00,,2013-06-19 11:33:00,
2013-06-19 06:43:00,66.0,60.0,29.98,WSW,248,0.0,0.0,82,0.00,,,0.00,,2013-06-19 11:43:00,
2013-06-19 06:54:00,66.0,60.0,30.00,SW,226,0.0,1.0,81,0.00,,,0.00,,2013-06-19 11:54:00,
2013-06-19 07:01:00,66.0,60.0,30.00,SW,226,0.0,1.0,81,0.00,,,0.00,,2013-06-19 12:01:00,
2013-06-19 07:12:00,66.0,60.0,30.00,SW,226,0.0,1.0,81,0.00,,,0.00,,2013-06-19 12:12:00,
2013-06-19 07:22:00,67.0,61.0,30.01,SW,220,0.0,7.0,80,0.00,,,0.00,,2013-06-19 12:22:00,
2013-06-19 07:34:00,67.0,61.0,30.01,SW,220,0.0,7.0,80,0.00,,,0.00,,2013-06-19 12:34:00,
2013-06-19 07:44:00,67.0,61.0,30.01,SW,220,0.0,7.0,80,0.00,,,0.00,,2013-06-19 12:44:00,
2013-06-19 07:53:00,67.0,61.0,30.00,West,268,0.0,0.0,81,0.00,,,0.00,,2013-06-19 12:53:00,
2013-06-19 08:02:00,67.0,61.0,30.00,West,268,0.0,0.0,81,0.00,,,0.00,,2013-06-19 13:02:00,
2013-06-19 08:12:00,67.0,61.0,30.00,West,268,0.0,0.0,81,0.00,,,0.00,,2013-06-19 13:12:00,
2013-06-19 08:22:00,67.0,61.0,30.01,West,264,0.0,0.0,81,0.00,,,0.00,,2013-06-19 13:22:00,
2013-06-19 08:33:00,67.0,61.0,30.01,West,264,0.0,0.0,81,0.00,,,0.00,,2013-06-19 13:33:00,
2013-06-19 08:43:00,67.0,61.0,30.01,West,264,0.0,0.0,81,0.00,,,0.00,,2013-06-19 13:43:00,
2013-06-19 08:54:00,70.0,61.0,30.00,SSW,202,0.0,7.0,74,0.00,,,0.00,,2013-06-19 13:54:00,
2013-06-19 09:02:00,70.0,61.0,30.00,SSW,202,0.0,7.0,74,0.00,,,0.00,,2013-06-19 14:02:00,
2013-06-19 09:11:00,70.0,61.0,30.00,SSW,202,0.0,7.0,74,0.00,,,0.00,,2013-06-19 14:11:00,
2013-06-19 09:22:00,73.0,61.0,30.01,SW,232,0.0,8.0,66,0.00,,,0.00,,2013-06-19 14:22:00,
2013-06-19 09:33:00,73.0,61.0,30.01,SW,232,0.0,8.0,66,0.00,,,0.00,,2013-06-19 14:33:00,
2013-06-19 09:44:00,73.0,61.0,30.01,SW,232,0.0,8.0,66,0.00,,,0.00,,2013-06-19 14:44:00,
2013-06-19 09:53:00,75.0,61.0,30.03,SW,232,0.0,12.0,62,0.00,,,0.00,,2013-06-19 14:53:00,
2013-06-19 10:01:00,75.0,61.0,30.03,SW,232,0.0,12.0,62,0.00,,,0.00,,2013-06-19 15:01:00,
2013-06-19 10:11:00,75.0,61.0,30.03,SW,232,0.0,12.0,62,0.00,,,0.00,,2013-06-19 15:11:00,
2013-06-19 10:22:00,76.0,62.0,30.03,WNW,284,0.0,11.0,62,0.00,,,0.00,,2013-06-19 15:22:00,
2013-06-19 10:33:00,76.0,62.0,30.03,WNW,284,0.0,11.0,62,0.00,,,0.00,,2013-06-19 15:33:00,
2013-06-19 10:43:00,76.0,62.0,30.03,WNW,284,0.0,11.0,62,0.00,,,0.00,,2013-06-19 15:43:00,
2013-06-19 10:53:00,77.0,61.0,30.04,SSW,200,2.0,14.0,57,0.00,,,0.00,,2013-06-19 15:53:00,
2013-06-19 11:01:00,77.0,61.0,30.04,SSW,200,2.0,14.0,57,0.00,,,0.00,,2013-06-19 16:01:00,
2013-06-19 11:11:00,77.0,61.0,30.04,SSW,200,2.0,14.0,57,0.00,,,0.00,,2013-06-19 16:11:00,
2013-06-19 11:22:00,79.0,60.0,30.03,SSW,196,0.0,13.0,53,0.00,,,0.00,,2013-06-19 16:22:00,
2013-06-19 11:33:00,79.0,60.0,30.03,SSW,196,0.0,13.0,53,0.00,,,0.00,,2013-06-19 16:33:00,
2013-06-19 11:43:00,79.0,60.0,30.03,SSW,196,0.0,13.0,53,0.00,,,0.00,,2013-06-19 16:43:00,
2013-06-19 11:53:00,82.0,61.0,30.01,SSW,205,0.0,13.0,49,0.00,,,0.00,,2013-06-19 16:53:00,
2013-06-19 12:02:00,82.0,61.0,30.01,SSW,205,0.0,13.0,49,0.00,,,0.00,,2013-06-19 17:02:00,
2013-06-19 12:12:00,82.0,61.0,30.01,SSW,205,0.0,13.0,49,0.00,,,0.00,,2013-06-19 17:12:00,
2013-06-19 12:22:00,83.0,59.0,30.03,West,267,1.0,13.0,45,0.00,,,0.00,,2013-06-19 17:22:00,
2013-06-19 12:34:00,83.0,59.0,30.03,West,267,1.0,13.0,45,0.00,,,0.00,,2013-06-19 17:34:00,
2013-06-19 12:43:00,83.0,59.0,30.03,West,267,1.0,13.0,45,0.00,,,0.00,,2013-06-19 17:43:00,
2013-06-19 12:53:00,85.0,59.0,30.03,SSW,198,1.0,12.0,41,0.00,,,0.00,,2013-06-19 17:53:00,
2013-06-19 13:01:00,85.0,59.0,30.03,SSW,198,1.0,12.0,41,0.00,,,0.00,,2013-06-19 18:01:00,
2013-06-19 13:11:00,85.0,59.0,30.03,SSW,198,1.0,12.0,41,0.00,,,0.00,,2013-06-19 18:11:00,
2013-06-19 13:24:00,87.0,61.0,30.01,ESE,119,5.0,14.0,42,0.00,,,0.00,,2013-06-19 18:24:00,
2013-06-19 13:33:00,87.0,61.0,30.01,ESE,119,5.0,14.0,42,0.00,,,0.00,,2013-06-19 18:33:00,
2013-06-19 13:44:00,87.0,61.0,30.01,ESE,119,5.0,14.0,42,0.00,,,0.00,,2013-06-19 18:44:00,
2013-06-19 13:53:00,88.0,58.0,30.01,South,182,2.0,14.0,37,0.00,,,0.00,,2013-06-19 18:53:00,
2013-06-19 14:01:00,88.0,58.0,30.01,South,182,2.0,14.0,37,0.00,,,0.00,,2013-06-19 19:01:00,
2013-06-19 14:12:00,88.0,58.0,30.01,South,182,2.0,14.0,37,0.00,,,0.00,,2013-06-19 19:12:00,
2013-06-19 14:22:00,89.0,58.0,29.99,South,171,0.0,12.0,35,0.00,,,0.00,,2013-06-19 19:22:00,
2013-06-19 14:32:00,89.0,58.0,29.99,South,171,0.0,12.0,35,0.00,,,0.00,,2013-06-19 19:32:00,
2013-06-19 14:43:00,89.0,58.0,29.99,South,171,0.0,12.0,35,0.00,,,0.00,,2013-06-19 19:43:00,
2013-06-19 14:53:00,91.0,55.0,29.99,WNW,289,1.0,10.0,30,0.00,,,0.00,,2013-06-19 19:53:00,
2013-06-19 15:02:00,91.0,55.0,29.99,WNW,289,1.0,10.0,30,0.00,,,0.00,,2013-06-19 20:02:00,
2013-06-19 15:11:00,91.0,55.0,29.99,WNW,289,1.0,10.0,30,0.00,,,0.00,,2013-06-19 20:11:00,
2013-06-19 15:22:00,91.0,53.0,29.98,SW,220,1.0,13.0,28,0.00,,,0.00,,2013-06-19 20:22:00,
2013-06-19 15:33:00,91.0,53.0,29.98,SW,220,1.0,13.0,28,0.00,,,0.00,,2013-06-19 20:33:00,
2013-06-19 15:43:00,91.0,53.0,29.98,SW,220,1.0,13.0,28,0.00,,,0.00,,2013-06-19 20:43:00,
2013-06-19 15:52:00,92.0,53.0,29.96,SW,233,4.0,12.0,27,0.00,,,0.00,,2013-06-19 20:52:00,
2013-06-19 16:02:00,92.0,53.0,29.96,SW,233,4.0,12.0,27,0.00,,,0.00,,2013-06-19 21:02:00,
2013-06-19 16:11:00,92.0,53.0,29.96,SW,233,4.0,12.0,27,0.00,,,0.00,,2013-06-19 21:11:00,
2013-06-19 16:22:00,91.0,48.0,29.97,SSW,200,5.0,14.0,23,0.00,,,0.00,,2013-06-19 21:22:00,
2013-06-19 16:33:00,91.0,48.0,29.97,SSW,200,5.0,14.0,23,0.00,,,0.00,,2013-06-19 21:33:00,
2013-06-19 16:44:00,91.0,48.0,29.97,SSW,200,5.0,14.0,23,0.00,,,0.00,,2013-06-19 21:44:00,
2013-06-19 16:52:00,89.0,52.0,29.95,South,182,0.0,17.0,28,0.00,,,0.00,,2013-06-19 21:52:00,
2013-06-19 17:01:00,89.0,52.0,29.95,South,182,0.0,17.0,28,0.00,,,0.00,,2013-06-19 22:01:00,
2013-06-19 17:11:00,89.0,52.0,29.95,South,182,0.0,17.0,28,0.00,,,0.00,,2013-06-19 22:11:00,
2013-06-19 17:22:00,91.0,47.0,29.92,South,169,2.0,13.0,22,0.00,,,0.00,,2013-06-19 22:22:00,
2013-06-19 17:34:00,91.0,47.0,29.92,South,169,2.0,13.0,22,0.00,,,0.00,,2013-06-19 22:34:00,
2013-06-19 17:43:00,91.0,47.0,29.92,South,169,2.0,13.0,22,0.00,,,0.00,,2013-06-19 22:43:00,
2013-06-19 17:53:00,91.0,48.0,29.93,SW,230,4.0,19.0,23,0.00,,,0.00,,2013-06-19 22:53:00,
2013-06-19 18:02:00,91.0,48.0,29.93,SW,230,4.0,19.0,23,0.00,,,0.00,,2013-06-19 23:02:00,
2013-06-19 18:12:00,91.0,48.0,29.93,SW,230,4.0,19.0,23,0.00,,,0.00,,2013-06-19 23:12:00,
2013-06-19 18:23:00,90.0,47.0,29.92,SSW,202,5.0,16.0,23,0.00,,,0.00,,2013-06-19 23:23:00,
2013-06-19 18:33:00,90.0,47.0,29.92,SSW,202,5.0,16.0,23,0.00,,,0.00,,2013-06-19 23:33:00,
2013-06-19 18:43:00,90.0,47.0,29.92,SSW,202,5.0,16.0,23,0.00,,,0.00,,2013-06-19 23:43:00,
2013-06-19 18:52:00,89.0,46.0,29.91,SSW,198,3.0,10.0,23,0.00,,,0.00,,2013-06-19 23:52:00,
2013-06-19 19:01:00,89.0,46.0,29.91,SSW,198,3.0,10.0,23,0.00,,,0.00,,2013-06-20 00:01:00,
2013-06-19 19:12:00,89.0,46.0,29.91,SSW,198,3.0,10.0,23,0.00,,,0.00,,2013-06-20 00:12:00,
2013-06-19 19:22:00,88.0,48.0,29.91,SSW,198,1.0,17.0,25,0.00,,,0.00,,2013-06-20 00:22:00,
2013-06-19 19:33:00,88.0,48.0,29.91,SSW,198,1.0,17.0,25,0.00,,,0.00,,2013-06-20 00:33:00,
2013-06-19 19:44:00,88.0,48.0,29.91,SSW,198,1.0,17.0,25,0.00,,,0.00,,2013-06-20 00:44:00,
2013-06-19 19:52:00,87.0,47.0,29.94,SSW,196,0.0,12.0,25,0.00,,,0.00,,2013-06-20 00:52:00,
2013-06-19 20:02:00,87.0,47.0,29.94,SSW,196,0.0,12.0,25,0.00,,,0.00,,2013-06-20 01:02:00,
2013-06-19 20:11:00,87.0,47.0,29.94,SSW,196,0.0,12.0,25,0.00,,,0.00,,2013-06-20 01:11:00,
2013-06-19 20:22:00,86.0,48.0,29.93,ESE,123,0.0,5.0,27,0.00,,,0.00,,2013-06-20 01:22:00,
2013-06-19 20:33:00,86.0,48.0,29.93,ESE,123,0.0,5.0,27,0.00,,,0.00,,2013-06-20 01:33:00,
2013-06-19 20:44:00,86.0,48.0,29.93,ESE,123,0.0,5.0,27,0.00,,,0.00,,2013-06-20 01:44:00,
2013-06-19 21:11:00,84.0,56.0,29.93,ESE,106,3.0,10.0,39,0.00,,,0.00,,2013-06-20 02:11:00,
2013-06-19 21:24:00,81.0,59.0,29.95,SSE,160,1.0,6.0,47,0.00,,,0.00,,2013-06-20 02:24:00,
2013-06-19 21:33:00,81.0,59.0,29.95,SSE,160,1.0,6.0,47,0.00,,,0.00,,2013-06-20 02:33:00,
2013-06-19 21:43:00,81.0,59.0,29.95,SSE,160,1.0,6.0,47,0.00,,,0.00,,2013-06-20 02:43:00,
2013-06-19 21:52:00,80.0,61.0,29.97,SE,144,0.0,10.0,53,0.00,,,0.00,,2013-06-20 02:52:00,
2013-06-19 22:02:00,80.0,61.0,29.97,SE,144,0.0,10.0,53,0.00,,,0.00,,2013-06-20 03:02:00,
2013-06-19 22:11:00,80.0,61.0,29.97,SE,144,0.0,10.0,53,0.00,,,0.00,,2013-06-20 03:11:00,
2013-06-19 22:22:00,78.0,62.0,30.01,SSE,154,0.0,9.0,57,0.00,,,0.00,,2013-06-20 03:22:00,
2013-06-19 22:33:00,78.0,62.0,30.01,SSE,154,0.0,9.0,57,0.00,,,0.00,,2013-06-20 03:33:00,
2013-06-19 22:43:00,78.0,62.0,30.01,SSE,154,0.0,9.0,57,0.00,,,0.00,,2013-06-20 03:43:00,
2013-06-19 22:54:00,76.0,64.0,30.03,ESE,109,0.0,0.0,67,0.00,,,0.00,,2013-06-20 03:54:00,
2013-06-19 23:01:00,76.0,64.0,30.03,ESE,109,0.0,0.0,67,0.00,,,0.00,,2013-06-20 04:01:00,
2013-06-19 23:11:00,76.0,64.0,30.03,ESE,109,0.0,0.0,67,0.00,,,0.00,,2013-06-20 04:11:00,
2013-06-19 23:22:00,75.0,64.0,30.01,ESE,116,6.0,13.0,68,0.00,,,0.00,,2013-06-20 04:22:00,
2013-06-19 23:33:00,75.0,64.0,30.01,ESE,116,6.0,13.0,68,0.00,,,0.00,,2013-06-20 04:33:00,
2013-06-19 23:44:00,75.0,64.0,30.01,ESE,116,6.0,13.0,68,0.00,,,0.00,,2013-06-20 04:44:00,
2013-06-19 23:54:00,74.0,63.0,30.03,ESE,106,4.0,12.0,69,0.00,,,0.00,,2013-06-20 04:54:00,